Dane County Regional Truax Field
KMSN : now visible

Airfield :











YOU CAN JOIN US ON...

 
LOGIN :

Register | Disclaimer

   EN    FR    IT 

 









Legend :    VFR   Marginal VFR   IFR   Intensive IFR   Very Intensive IFR
Visi :
Ceiling :
>= 8 km
>= 3000ft
5 to 8 km
1000 to 3000 ft
1500m to 5 km
500 to 1000 ft
800 to 1500m
200 to 500 ft
< 800m
< 200 ft
Symbols :   Thunderstorms  Fog  Heavy snow  Heavy precipitations  Wind > 20 kt






- Airport Elevation : 887 ft
- IATA code : MSN


KMSN - Dane County Regional Truax Field

CURRENT METAR :
  • 281153Z 30004KT 10SM OVC015 M02/M06 A3006 RMK AO2 SLP192 4/007 T10221056 11006 21022 53001

EXPIRED METARs :
  • 281053Z AUTO 31004KT 10SM OVC014 M02/M05 A3006 RMK AO2 SLP192 T10221050
  • 280953Z AUTO 31003KT 10SM OVC013 M02/M05 A3006 RMK AO2 SLP189 T10171050

TAF KMSN
Valid from the 28 at 12:00 until the 29 at 12:00 UTC


281120Z 2812/2912 32005KT P6SM OVC012
FM281600 34005KT P6SM OVC010
FM291100 00000KT P6SM OVC022



MET'MAP, your aeronautical weather chart ! - Copyright ORBIFLY December 2007 - Disclaimer

ORBIFLY MET'MAP TEAM :

Programming & Development : Alexandra Zaïnal
Concept & original design : Baudouin d'Aumeries
Assistance for programming : Marc-Olivier Méhu
Technical & hardware support : Manuel Goepfert

Contact : metmap@orbifly.com




SOURCES & CREDITS :

   NOAA       Earth
Advisory